ePrivacy and GPDR Cookie Consent by Cookie Consent
EmailTwitter


Observations de surface / Europe / LIRF (16242)

Régions: Québec | Canada | États-Unis | Europe | France | UK | Ailleurs
Station
Affichage
Infos & localisation pour LIRF (16242) | Aide pour décoder les METARs

Observations prises le 2023-02-07 à 10H50 UTC (LIRF)

Température: 8.0 Celsius

Point de rosée: -7.0 Celsius

Humidité relative: 34%

Vents: Est à 9 km/h ou 5 noeuds.

Pression au niveau moyen de la mer: 103.20 kilopascals.

Observation METAR:

LIRF 071050Z 09005KT CAVOK 08/M07 Q1032 NOSIG=